Hamtramck, MI

3:12 PM EDT on September 03, 2015 (GMT -0400)
La Salle Gardens | | Change Station
CLOSE
Current Station
Personal Weather Station
Location: Detroit, MI
Elevation: 631 ft
Nearby Weather Stations

Elev 631 ft 42.36 °N, 83.10 °W | Updated 4 seconds ago

Light Thunderstorms and Rain
Light Thunderstorm Rain
70.7 °F
Feels Like 70.7 °F
N
0.4
Wind Variable Wind from NW
Gusts 2.5 mph

Today
High -- | Low -- °F
--% Chance of Precip.
Yesterday
High -- | Low -- °F
Precip. -- in
6:59 AM 8:03 PM
Waning Gibbous, 68% visible
Pressure 29.97 in
Visibility 3.0 miles
Clouds Few 2400 ft
Mostly Cloudy 4700 ft
Mostly Cloudy 7500 ft
Dew Point 68 °F
Humidity 93%
Rainfall 0.17 in
Snow Depth Not available.
UV 0.0 out of 12
Pollen 7.20 out of 12
Air Quality Not available.
Flu Activity Not available.
SPECI KDET 031856Z 31007G16KT 3SM -TSRA FEW024 BKN047 BKN075 22/18 A2997 RMK AO2 LTG DSNT ALQDS P0000 T02220178
Pressure 29.97 in
Visibility 3.0 miles
Clouds Few 2400 ft
Mostly Cloudy 4700 ft
Mostly Cloudy 7500 ft
Dew Point 68 °F
Humidity 93%
Rainfall 0.17 in
Snow Depth Not available.
UV 0.0 out of 12
Pollen 7.20 out of 12
Air Quality Not available.
Flu Activity Not available.
SPECI KDET 031856Z 31007G16KT 3SM -TSRA FEW024 BKN047 BKN075 22/18 A2997 RMK AO2 LTG DSNT ALQDS P0000 T02220178

10-Day Weather Forecast

×

Almanac

Astronomy

Sep. 03, 2015 Rise Set
Actual Time
Civil Twilight
Nautical Twilight
Astronomical Twilight
Moon
Length of Visible Light
Length of Day
Tomorrow will be .
, % of the Moon is Illuminated

Today's Extremes

State Highs State Lows

Community

WunderPhotos

Upload Photos

1,852,014 photos uploaded!

WunderBlogs® & News

Nearby

Air Quality

  Air Quality AQ Index Pollutant
Not available.

Snow Depth

Station Depth Elevation

Earthquake Activity

City Distance Mag. Time & Date
Minimum magnitude displayed is 2.5.

Coastal Water Temperatures

Place Temperature

Stations

Nearby Weather Stations

Station Location Temp. Windchill Dew Point Humidity Wind Precip. Elev Updated Type
                   
Severe Thunderstorm Warning
Statement as of 3:11 PM EDT on September 03, 2015

... The Severe Thunderstorm Warning for central Wayne County will
expire at 315 PM EDT...

the storms which prompted the warning have moved out of the area.
Therefore the warning will be allowed to expire.

Lat... Lon 4209 8329 4209 8335 4230 8334 4244 8315
      4245 8287 4236 8293 4235 8299 4234 8296
      4234 8299 4232 8307 4224 8314 4212 8313
      4209 8315 4211 8318 4219 8315 4211 8319
      4208 8317 4207 8319 4203 8319
time... Mot... loc 1910z 255deg 12kt 4244 8293 4226 8327


Dt